METAR Data
IDs: Format: Raw Decoded Include TAF

Data at: 1142 UTC 28 Jul 2021

KL08 281135Z AUTO VRB04KT 10SM SCT050 28/10 A2991 RMK AO2
KL08 281115Z AUTO 26004KT 10SM FEW050 28/11 A2990 RMK AO2
KL08 281055Z AUTO 26004KT 10SM BKN050 28/10 A2990 RMK AO2
KL08 281035Z AUTO 23003KT 10SM BKN050 30/11 A2990 RMK AO2
KL08 281015Z AUTO 21003KT 10SM FEW046 FEW055 30/11 A2990 RMK AO2
KL08 280955Z AUTO 33006KT 10SM CLR 30/11 A2989 RMK AO2
KL08 280935Z AUTO 32004KT 10SM FEW049 SCT055 30/11 A2990 RMK AO2
KL08 280915Z AUTO 30006KT 10SM SCT055 29/11 A2989 RMK AO2
KL08 280855Z AUTO 32005KT 10SM SCT055 31/11 A2989 RMK AO2
KL08 280835Z AUTO 00000KT 10SM FEW050 FEW060 31/10 A2989 RMK AO2
KL08 280815Z AUTO VRB04KT 10SM FEW050 32/11 A2989 RMK AO2
KL08 280755Z AUTO 32007KT 10SM CLR 33/10 A2989 RMK AO2
KL08 280735Z AUTO 33010KT 10SM FEW050 FEW055 33/10 A2989 RMK AO2
KL08 280715Z AUTO 33008G13KT 10SM FEW050 SCT055 33/10 A2989 RMK AO2
KL08 280655Z AUTO 33008KT 10SM FEW055 33/10 A2989 RMK AO2
KL08 280635Z AUTO 32011KT 10SM SCT055 33/10 A2989 RMK AO2
KL08 280615Z AUTO 30008G17KT 10SM SCT050 SCT055 34/10 A2989 RMK AO2
KL08 280555Z AUTO 33014KT 10SM FEW050 SCT055 34/10 A2989 RMK AO2
KL08 280535Z AUTO 33014KT 10SM FEW050 FEW055 34/09 A2989 RMK AO2
KL08 280515Z AUTO 34013KT 10SM CLR 34/10 A2989 RMK AO2
KL08 280455Z AUTO 33013KT 10SM CLR 34/10 A2989 RMK AO2
KL08 280435Z AUTO 33013KT 10SM CLR 35/10 A2988 RMK AO2
KL08 280415Z AUTO 32012KT 10SM CLR 35/10 A2987 RMK AO2
KL08 280355Z AUTO 32012G17KT 10SM CLR 36/11 A2987 RMK AO2
KL08 280335Z AUTO 32008G14KT 10SM CLR 36/12 A2986 RMK AO2
KL08 280315Z AUTO 32008KT 10SM CLR 37/12 A2985 RMK AO2
KL08 280255Z AUTO 32007KT 10SM CLR 37/13 A2984 RMK AO2
KL08 280235Z AUTO VRB05KT 10SM CLR 38/14 A2983 RMK AO2
KL08 280215Z AUTO 09006KT 10SM CLR 40/09 A2982 RMK AO2
KL08 280155Z AUTO 15004KT 10SM CLR 40/10 A2981 RMK AO2
KL08 280135Z AUTO 17005KT 10SM CLR 40/10 A2980 RMK AO2
KL08 280115Z AUTO 00000KT 10SM CLR 40/09 A2980 RMK AO2
KL08 280055Z AUTO 10004KT 10SM CLR 40/10 A2980 RMK AO2
KL08 280035Z AUTO 23003KT 10SM CLR 40/10 A2981 RMK AO2
KL08 280015Z AUTO 08005KT 10SM CLR 40/10 A2981 RMK AO2
KL08 272355Z AUTO 00000KT 10SM CLR 40/11 A2982 RMK AO2
KL08 272335Z AUTO 13004KT 10SM CLR 41/11 A2983 RMK AO2
KL08 272315Z AUTO 32003KT 10SM CLR 40/11 A2984 RMK AO2
KL08 272255Z AUTO 10009KT 10SM CLR 40/11 A2984 RMK AO2
KL08 272235Z AUTO VRB04KT 10SM CLR 41/11 A2985 RMK AO2
KL08 272215Z AUTO 07007G14KT 040V100 10SM CLR 40/11 A2987 RMK AO2
KL08 272155Z AUTO 11011KT 10SM CLR 40/12 A2987 RMK AO2
KL08 272135Z AUTO 10009G17KT 10SM CLR 40/12 A2988 RMK AO2
KL08 272115Z AUTO VRB05G12KT 10SM CLR 40/11 A2989 RMK AO2
KL08 272055Z AUTO 10009KT 10SM CLR 40/11 A2989 RMK AO2
KL08 272035Z AUTO 12010G17KT 10SM CLR 40/11 A2990 RMK AO2
KL08 272015Z AUTO 10007KT 060V140 10SM CLR 39/12 A2990 RMK AO2
KL08 271955Z AUTO 09006G15KT 10SM CLR 39/12 A2990 RMK AO2
KL08 271935Z AUTO 00000G14KT 10SM CLR 38/11 A2991 RMK AO2
KL08 271915Z AUTO 09009KT 10SM CLR 38/11 A2991 RMK AO2
KL08 271855Z AUTO 11006G13KT 10SM CLR 38/11 A2992 RMK AO2
KL08 271835Z AUTO 10008G14KT 10SM CLR 38/12 A2992 RMK AO2
KL08 271815Z AUTO 13006G12KT 10SM CLR 37/14 A2992 RMK AO2
KL08 271755Z AUTO 00000G10KT 10SM CLR 37/15 A2992 RMK AO2
KL08 271735Z AUTO VRB03KT 10SM CLR 36/14 A2992 RMK AO2
KL08 271715Z AUTO VRB03KT 10SM CLR 36/15 A2992 RMK AO2
KL08 271655Z AUTO 00000KT 10SM CLR 35/16 A2992 RMK AO2
KL08 271635Z AUTO 11004KT 10SM CLR 35/16 A2992 RMK AO2
KL08 271615Z AUTO VRB03KT 10SM CLR 34/16 A2992 RMK AO2
KL08 271555Z AUTO 00000KT 10SM CLR 33/17 A2992 RMK AO2
KL08 271535Z AUTO 00000KT 10SM CLR 32/18 A2992 RMK AO2
KL08 271515Z AUTO 00000KT 10SM CLR 31/18 A2992 RMK AO2
KL08 271455Z AUTO 00000KT 10SM CLR 30/18 A2991 RMK AO2
KL08 271435Z AUTO 00000KT 10SM CLR 29/18 A2990 RMK AO2
KL08 271415Z AUTO 00000KT 10SM CLR 28/18 A2990 RMK AO2
KL08 271355Z AUTO 00000KT 10SM CLR 26/18 A2990 RMK AO2
KL08 271335Z AUTO 26004KT 10SM CLR 25/17 A2989 RMK AO2
KL08 271315Z AUTO 00000KT 10SM CLR 25/18 A2989 RMK AO2
KL08 271255Z AUTO 00000KT 10SM CLR 24/18 A2989 RMK AO2
KL08 271235Z AUTO 00000KT 10SM FEW035 FEW041 24/17 A2988 RMK AO2
KL08 271215Z AUTO 00000KT 10SM CLR 25/17 A2988 RMK AO2
KL08 271155Z AUTO 00000KT 10SM FEW055 26/17 A2988 RMK AO2
KL08 271135Z AUTO 00000KT 10SM FEW050 FEW060 25/17 A2987 RMK AO2
KL08 271115Z AUTO 32004KT 10SM CLR 26/17 A2987 RMK AO2
KL08 271055Z AUTO 32005KT 10SM CLR 26/17 A2987 RMK AO2
KL08 271035Z AUTO 27004KT 10SM CLR 26/18 A2987 RMK AO2
KL08 271015Z AUTO 00000KT 10SM FEW034 FEW040 SCT048 27/18 A2986 RMK AO2
KL08 270955Z AUTO 00000KT 10SM FEW032 BKN039 OVC047 28/18 A2986 RMK AO2
KL08 270935Z AUTO 29004KT 10SM FEW028 SCT037 BKN047 27/18 A2986 RMK AO2
KL08 270915Z AUTO 25004KT 10SM SCT035 BKN050 28/18 A2986 RMK AO2
KL08 270855Z AUTO 00000KT 10SM SCT034 SCT041 BKN060 28/18 A2986 RMK AO2
KL08 270835Z AUTO 00000KT 10SM FEW034 FEW040 BKN060 28/18 A2987 RMK AO2
KL08 270815Z AUTO 00000KT 10SM FEW039 BKN055 BKN065 30/18 A2987 RMK AO2
KL08 270755Z AUTO 33005KT 10SM FEW033 BKN055 OVC065 30/18 A2987 RMK AO2
KL08 270735Z AUTO 33005KT 10SM FEW038 OVC055 30/18 A2987 RMK AO2
KL08 270715Z AUTO 33006KT 10SM FEW038 SCT045 OVC055 30/18 A2987 RMK AO2
KL08 270655Z AUTO 33005KT 10SM FEW042 FEW049 OVC060 30/18 A2987 RMK AO2
KL08 270635Z AUTO 33005KT 10SM BKN060 31/17 A2988 RMK AO2
KL08 270615Z AUTO 34005KT 10SM FEW050 BKN060 31/17 A2988 RMK AO2
KL08 270555Z AUTO 00000KT 10SM SCT048 BKN060 31/17 A2988 RMK AO2
KL08 270535Z AUTO 00000KT 10SM FEW048 FEW060 31/18 A2987 RMK AO2
KL08 270515Z AUTO 00000KT 10SM FEW050 SCT060 32/17 A2987 RMK AO2
KL08 270455Z AUTO 19003KT 10SM FEW050 SCT055 32/17 A2986 RMK AO2
KL08 270435Z AUTO 00000KT 10SM SCT055 32/17 A2985 RMK AO2
KL08 270415Z AUTO 00000KT 10SM SCT055 SCT065 33/16 A2984 RMK AO2
KL08 270355Z AUTO 30003KT 10SM SCT050 SCT060 33/16 A2984 RMK AO2
KL08 270335Z AUTO 00000KT 10SM SCT060 34/16 A2983 RMK AO2
KL08 270315Z AUTO 00000KT 10SM CLR 35/16 A2983 RMK AO2
KL08 270255Z AUTO 00000KT 10SM CLR 35/16 A2982 RMK AO2
KL08 270235Z AUTO 00000KT 10SM CLR 35/16 A2982 RMK AO2
KL08 270215Z AUTO 00000KT 10SM CLR 36/16 A2981 RMK AO2
KL08 270155Z AUTO 00000KT 10SM CLR 36/16 A2981 RMK AO2
KL08 270135Z AUTO 16004KT 10SM CLR 36/15 A2981 RMK AO2
KL08 270115Z AUTO 11007KT 10SM CLR 36/15 A2980 RMK AO2
KL08 270055Z AUTO 00000KT 10SM CLR 36/15 A2981 RMK AO2
KL08 270035Z AUTO 00000KT 10SM CLR 36/15 A2981 RMK AO2
KL08 270015Z AUTO VRB04KT 10SM CLR 36/15 A2982 RMK AO2
KL08 262355Z AUTO 00000KT 10SM CLR 36/15 A2982 RMK AO2